createdAt,value
2018-09-16T00:01:39.068Z,4.00
2018-09-16T00:04:07.180Z,3.50
2018-09-16T00:06:35.237Z,3.83
2018-09-16T00:09:03.659Z,4.23
2018-09-16T00:11:31.748Z,4.30
2018-09-16T00:13:59.857Z,3.67
2018-09-16T00:16:27.928Z,4.40
2018-09-16T00:18:55.995Z,3.93
2018-09-16T00:21:24.060Z,3.93
2018-09-16T00:23:52.136Z,4.50
2018-09-16T00:26:20.198Z,3.87
2018-09-16T00:28:48.363Z,3.80
2018-09-16T00:31:16.450Z,4.00
2018-09-16T00:33:44.669Z,4.80
2018-09-16T00:36:12.833Z,4.10
2018-09-16T00:38:40.912Z,4.70
2018-09-16T00:41:08.987Z,4.60
2018-09-16T00:43:37.088Z,4.47
2018-09-16T00:46:05.216Z,3.97
2018-09-16T00:48:33.387Z,4.43
2018-09-16T00:51:01.449Z,4.00
2018-09-16T00:53:29.593Z,4.20
2018-09-16T00:55:57.731Z,4.20
2018-09-16T00:58:25.802Z,4.00
2018-09-16T01:00:56.492Z,4.40
2018-09-16T01:03:24.654Z,4.20
2018-09-16T01:05:58.204Z,3.60
2018-09-16T01:08:27.439Z,4.33
2018-09-16T01:10:56.606Z,4.30
2018-09-16T01:13:24.670Z,3.80
2018-09-16T01:15:52.947Z,4.07
2018-09-16T01:18:21.028Z,4.50
2018-09-16T01:20:49.156Z,4.90
2018-09-16T01:23:17.324Z,4.60
2018-09-16T01:25:45.377Z,4.57
2018-09-16T01:28:13.592Z,3.97
2018-09-16T01:30:41.722Z,4.70
2018-09-16T01:33:09.786Z,4.20
2018-09-16T01:35:37.879Z,4.20
2018-09-16T01:38:11.392Z,5.10
2018-09-16T01:40:39.512Z,5.60
2018-09-16T01:43:07.605Z,4.70
2018-09-16T01:45:35.689Z,4.73
2018-09-16T01:48:03.762Z,4.20
2018-09-16T01:50:31.859Z,4.13
2018-09-16T01:52:59.923Z,4.03
2018-09-16T01:55:28.094Z,4.27
2018-09-16T01:57:56.140Z,3.90
2018-09-16T02:00:25.094Z,4.60
2018-09-16T02:02:54.675Z,4.53
2018-09-16T02:05:27.760Z,5.70
2018-09-16T02:07:56.449Z,4.43
2018-09-16T02:10:24.553Z,4.40
2018-09-16T02:12:52.639Z,4.60
2018-09-16T02:15:20.968Z,4.20
2018-09-16T02:17:49.619Z,4.70
2018-09-16T02:20:17.703Z,4.50
2018-09-16T02:22:45.775Z,4.43
2018-09-16T02:25:13.839Z,5.07
2018-09-16T02:27:41.936Z,4.63
2018-09-16T02:30:10.124Z,4.90
2018-09-16T02:32:38.213Z,4.30
2018-09-16T02:35:06.278Z,4.47
2018-09-16T02:37:34.385Z,5.07
2018-09-16T02:40:02.463Z,4.10
2018-09-16T02:42:30.593Z,4.23
2018-09-16T02:44:58.658Z,4.70
2018-09-16T02:47:26.731Z,5.10
2018-09-16T02:49:54.869Z,4.57
2018-09-16T02:52:22.930Z,4.67
2018-09-16T02:54:51.030Z,4.70
2018-09-16T02:57:19.103Z,4.53
2018-09-16T02:59:47.181Z,5.03
2018-09-16T03:02:15.264Z,4.43
2018-09-16T03:04:43.363Z,4.20
2018-09-16T03:07:11.471Z,4.30
2018-09-16T03:09:45.277Z,4.60
2018-09-16T03:12:13.340Z,4.93
2018-09-16T03:14:41.391Z,4.50
2018-09-16T03:17:09.493Z,4.43
2018-09-16T03:19:37.740Z,4.50
2018-09-16T03:22:05.847Z,5.43
2018-09-16T03:24:33.903Z,5.03
2018-09-16T03:27:01.979Z,4.53
2018-09-16T03:29:30.047Z,4.37
2018-09-16T03:31:58.118Z,4.83
2018-09-16T03:34:26.192Z,4.60
2018-09-16T03:36:54.247Z,4.70
2018-09-16T03:39:22.300Z,4.50
2018-09-16T03:41:50.408Z,4.83
2018-09-16T03:44:18.480Z,4.30
2018-09-16T03:46:46.638Z,4.23
2018-09-16T03:49:14.695Z,4.15
2018-09-16T03:51:42.750Z,5.00
2018-09-16T03:54:10.812Z,4.40
2018-09-16T03:56:38.928Z,4.10
2018-09-16T03:59:07.091Z,4.50
2018-09-16T04:01:35.184Z,5.73
2018-09-16T04:04:03.287Z,4.87
2018-09-16T04:06:31.372Z,5.27
2018-09-16T04:08:59.680Z,4.73
2018-09-16T04:11:27.723Z,4.90
2018-09-16T04:13:55.863Z,4.90
2018-09-16T04:16:23.850Z,4.73
2018-09-16T04:18:51.976Z,4.97
2018-09-16T04:21:19.996Z,4.27
2018-09-16T04:23:48.673Z,5.73
2018-09-16T04:26:17.766Z,4.80
2018-09-16T04:28:45.919Z,5.50
2018-09-16T04:31:15.067Z,4.57
2018-09-16T04:33:43.133Z,4.85
2018-09-16T04:36:11.212Z,4.53
2018-09-16T04:38:39.292Z,5.60
2018-09-16T04:41:07.388Z,4.50
2018-09-16T04:43:35.643Z,4.50
2018-09-16T04:46:03.710Z,5.23
2018-09-16T04:48:31.797Z,4.70
2018-09-16T04:50:59.967Z,5.67
2018-09-16T04:53:28.123Z,4.33
2018-09-16T04:55:56.175Z,4.80
2018-09-16T04:58:24.258Z,5.07
2018-09-16T05:00:52.331Z,4.53
2018-09-16T05:03:20.456Z,4.50
2018-09-16T05:05:48.512Z,4.10
2018-09-16T05:08:16.603Z,4.67
2018-09-16T05:10:44.768Z,4.70
2018-09-16T05:13:12.867Z,4.67
2018-09-16T05:15:40.936Z,4.73
2018-09-16T05:18:09.015Z,4.80
2018-09-16T05:20:37.102Z,4.70
2018-09-16T05:23:05.180Z,6.13
2018-09-16T05:25:33.260Z,5.15
2018-09-16T05:28:01.318Z,5.03
2018-09-16T05:30:29.421Z,5.47
2018-09-16T05:32:57.479Z,4.77
2018-09-16T05:35:25.586Z,4.90
2018-09-16T05:37:53.632Z,4.87
2018-09-16T05:40:21.727Z,4.77
2018-09-16T05:42:49.788Z,4.87
2018-09-16T05:45:17.868Z,5.37
2018-09-16T05:47:45.957Z,4.93
2018-09-16T05:50:14.042Z,4.60
2018-09-16T05:52:42.209Z,5.10
2018-09-16T05:55:10.260Z,5.25
2018-09-16T05:57:38.355Z,4.90
2018-09-16T06:00:06.762Z,9.00
2018-09-16T06:02:34.818Z,5.30
2018-09-16T06:05:03.009Z,8.03
2018-09-16T06:07:31.008Z,6.00
2018-09-16T06:09:59.112Z,6.50
2018-09-16T06:12:27.118Z,6.10
2018-09-16T06:14:55.191Z,5.53
2018-09-16T06:17:23.259Z,9.27
2018-09-16T06:19:51.344Z,7.87
2018-09-16T06:22:19.440Z,8.37
2018-09-16T06:24:47.537Z,9.87
2018-09-16T06:27:15.604Z,8.43
2018-09-16T06:29:43.713Z,8.53
2018-09-16T06:32:11.819Z,6.93
2018-09-16T06:34:39.884Z,5.70
2018-09-16T06:37:07.988Z,5.50
2018-09-16T06:39:36.054Z,6.03
2018-09-16T06:42:04.144Z,5.80
2018-09-16T06:44:32.225Z,5.43
2018-09-16T06:47:00.484Z,5.00
2018-09-16T06:49:28.555Z,5.90
2018-09-16T06:51:56.691Z,5.90
2018-09-16T06:54:24.790Z,5.93
2018-09-16T06:56:52.863Z,6.07
2018-09-16T06:59:20.924Z,6.00
2018-09-16T07:01:49.007Z,5.20
2018-09-16T07:04:17.080Z,6.10
2018-09-16T07:06:45.160Z,5.27
2018-09-16T07:09:14.310Z,5.63
2018-09-16T07:11:42.778Z,6.40
2018-09-16T07:14:10.841Z,4.53
2018-09-16T07:16:39.047Z,4.73
2018-09-16T07:19:07.981Z,5.10
2018-09-16T07:21:36.064Z,5.53
2018-09-16T07:24:04.135Z,5.20
2018-09-16T07:26:32.338Z,4.80
2018-09-16T07:29:00.471Z,4.27
2018-09-16T07:31:28.580Z,4.60
2018-09-16T07:33:56.769Z,4.33
2018-09-16T07:36:24.986Z,4.17
2018-09-16T07:38:53.107Z,4.47
2018-09-16T07:41:21.180Z,4.33
2018-09-16T07:43:49.259Z,4.60
2018-09-16T07:46:17.427Z,4.40
2018-09-16T07:48:45.511Z,3.80
2018-09-16T07:51:13.595Z,4.07
2018-09-16T07:53:41.713Z,4.00
2018-09-16T07:56:09.792Z,4.07
2018-09-16T07:58:37.907Z,4.77
2018-09-16T08:01:06.210Z,4.40
2018-09-16T08:03:34.287Z,4.00
2018-09-16T08:06:02.436Z,4.90
2018-09-16T08:08:30.453Z,4.43
2018-09-16T08:10:58.566Z,4.47
2018-09-16T08:13:26.627Z,4.20
2018-09-16T08:15:54.683Z,4.00
2018-09-16T08:18:22.772Z,4.50
2018-09-16T08:20:50.857Z,4.37
2018-09-16T08:23:18.940Z,4.10
2018-09-16T08:25:46.987Z,4.90
2018-09-16T08:28:15.073Z,4.30
2018-09-16T08:30:43.136Z,3.90
2018-09-16T08:33:11.206Z,4.10
2018-09-16T08:35:39.291Z,4.33
2018-09-16T08:38:07.416Z,3.70
2018-09-16T08:40:35.471Z,4.13
2018-09-16T08:43:03.698Z,4.17
2018-09-16T08:45:31.807Z,4.00
2018-09-16T08:47:59.833Z,4.13
2018-09-16T08:50:27.916Z,3.53
2018-09-16T08:52:56.032Z,3.10
2018-09-16T08:55:24.151Z,3.40
2018-09-16T08:57:52.246Z,4.00
2018-09-16T09:00:20.350Z,3.87
2018-09-16T09:02:48.434Z,4.13
2018-09-16T09:05:16.507Z,3.70
2018-09-16T09:07:44.642Z,3.20
2018-09-16T09:10:12.743Z,3.53
2018-09-16T09:12:40.829Z,3.30
2018-09-16T09:15:08.911Z,3.00
2018-09-16T09:17:36.987Z,2.50
2018-09-16T09:20:05.083Z,2.50
2018-09-16T09:22:33.164Z,2.40
2018-09-16T09:25:01.296Z,2.07
2018-09-16T09:27:29.394Z,2.00
2018-09-16T09:29:57.466Z,2.77
2018-09-16T09:32:25.528Z,2.17
2018-09-16T09:34:53.619Z,2.83
2018-09-16T09:37:21.714Z,1.80
2018-09-16T09:39:49.797Z,2.30
2018-09-16T09:42:17.862Z,2.10
2018-09-16T09:44:45.966Z,2.00
2018-09-16T09:47:14.058Z,2.00
2018-09-16T09:49:42.134Z,1.73
2018-09-16T09:52:10.207Z,1.60
2018-09-16T09:54:38.287Z,2.13
2018-09-16T09:57:06.488Z,1.60
2018-09-16T09:59:34.621Z,1.20
2018-09-16T10:02:02.691Z,1.63
2018-09-16T10:04:30.765Z,1.53
2018-09-16T10:07:01.880Z,1.60
2018-09-16T10:09:30.039Z,1.30
2018-09-16T10:11:58.264Z,1.53
2018-09-16T10:14:26.453Z,1.87
2018-09-16T10:16:54.460Z,1.27
2018-09-16T10:19:22.533Z,1.23
2018-09-16T10:21:50.996Z,1.83
2018-09-16T10:24:19.124Z,1.60
2018-09-16T10:26:47.197Z,1.10
2018-09-16T10:29:15.283Z,1.30
2018-09-16T10:31:43.434Z,1.30
2018-09-16T10:34:11.524Z,1.40
2018-09-16T10:36:39.701Z,1.10
2018-09-16T10:39:09.768Z,1.30
2018-09-16T10:41:37.860Z,1.40
2018-09-16T10:44:05.979Z,1.13
2018-09-16T10:46:34.072Z,1.23
2018-09-16T10:49:02.255Z,1.13
2018-09-16T10:51:30.374Z,1.30
2018-09-16T10:53:58.462Z,1.20
2018-09-16T10:56:26.531Z,1.37
2018-09-16T10:58:54.684Z,1.20
2018-09-16T11:01:22.761Z,0.90
2018-09-16T11:03:50.908Z,1.80
2018-09-16T11:06:19.023Z,1.10
2018-09-16T11:08:47.095Z,1.23
2018-09-16T11:11:15.192Z,1.03
2018-09-16T11:13:43.260Z,1.10
2018-09-16T11:16:11.361Z,1.10
2018-09-16T11:18:39.484Z,0.83
2018-09-16T11:21:07.558Z,1.10
2018-09-16T11:23:35.644Z,1.03
2018-09-16T11:26:03.742Z,1.13
2018-09-16T11:28:31.916Z,1.10
2018-09-16T11:31:00.007Z,1.63
2018-09-16T11:33:28.077Z,1.57
2018-09-16T11:35:56.145Z,1.20
2018-09-16T11:38:24.219Z,1.00
2018-09-16T11:40:52.286Z,1.00
2018-09-16T11:43:20.379Z,1.30
2018-09-16T11:45:48.452Z,0.97
2018-09-16T11:48:16.531Z,1.10
2018-09-16T11:50:44.596Z,1.03
2018-09-16T11:53:12.794Z,1.30
2018-09-16T11:55:40.844Z,1.20
2018-09-16T11:58:08.914Z,1.50
2018-09-16T12:00:37.002Z,1.10
2018-09-16T12:03:05.103Z,1.37
2018-09-16T12:05:33.177Z,1.13
2018-09-16T12:08:01.301Z,1.23
2018-09-16T12:10:29.377Z,1.30
2018-09-16T12:12:57.452Z,1.33
2018-09-16T12:15:25.525Z,1.40
2018-09-16T12:17:53.659Z,1.17
2018-09-16T12:20:21.814Z,1.20
2018-09-16T12:22:49.910Z,1.47
2018-09-16T12:25:18.111Z,1.10
2018-09-16T12:27:46.200Z,2.13
2018-09-16T12:30:14.271Z,1.63
2018-09-16T12:32:42.368Z,1.53
2018-09-16T12:35:10.428Z,1.60
2018-09-16T12:37:39.370Z,1.67
2018-09-16T12:40:07.455Z,1.40
2018-09-16T12:42:35.544Z,1.30
2018-09-16T12:45:03.640Z,1.40
2018-09-16T12:47:31.790Z,1.37
2018-09-16T12:49:59.915Z,1.30
2018-09-16T12:52:28.009Z,1.33
2018-09-16T12:54:56.300Z,1.23
2018-09-16T12:57:24.369Z,1.30
2018-09-16T12:59:52.443Z,1.37
2018-09-16T13:02:20.590Z,1.47
2018-09-16T13:04:48.735Z,1.33
2018-09-16T13:07:16.835Z,1.43
2018-09-16T13:09:44.921Z,1.40
2018-09-16T13:12:12.979Z,1.03
2018-09-16T13:14:41.116Z,1.40
2018-09-16T13:17:09.236Z,1.50
2018-09-16T13:19:37.327Z,1.57
2018-09-16T13:22:05.432Z,1.30
2018-09-16T13:24:33.529Z,1.20
2018-09-16T13:27:01.584Z,1.43
2018-09-16T13:29:29.699Z,1.60
2018-09-16T13:31:57.770Z,1.43
2018-09-16T13:34:25.851Z,1.23
2018-09-16T13:36:53.922Z,1.30
2018-09-16T13:39:21.979Z,1.67
2018-09-16T13:41:50.120Z,1.40
2018-09-16T13:44:18.219Z,1.10
2018-09-16T13:46:46.307Z,1.13
2018-09-16T13:49:14.375Z,1.20
2018-09-16T13:51:42.492Z,1.10
2018-09-16T13:54:10.578Z,1.00
2018-09-16T13:56:38.681Z,1.37
2018-09-16T13:59:06.888Z,1.53
2018-09-16T14:01:35.046Z,1.70
2018-09-16T14:04:03.167Z,1.27
2018-09-16T14:06:31.302Z,1.37
2018-09-16T14:08:59.362Z,1.30
2018-09-16T14:11:27.454Z,1.47
2018-09-16T14:13:55.570Z,1.50
2018-09-16T14:16:23.751Z,1.03
2018-09-16T14:18:51.884Z,1.60
2018-09-16T14:21:20.166Z,1.07
2018-09-16T14:23:48.239Z,1.30
2018-09-16T14:26:16.322Z,1.40
2018-09-16T14:28:44.430Z,1.40
2018-09-16T14:31:12.553Z,1.40
2018-09-16T14:33:40.696Z,1.23
2018-09-16T14:36:08.793Z,1.23
2018-09-16T14:38:36.979Z,1.30
2018-09-16T14:41:05.051Z,1.33
2018-09-16T14:43:33.159Z,1.80
2018-09-16T14:46:01.305Z,1.67
2018-09-16T14:48:29.442Z,1.80
2018-09-16T14:50:57.511Z,1.53
2018-09-16T14:53:25.635Z,1.63
2018-09-16T14:55:53.700Z,1.40
2018-09-16T14:58:21.826Z,1.30
2018-09-16T15:00:49.914Z,1.63
2018-09-16T15:03:18.024Z,1.20
2018-09-16T15:05:46.086Z,1.30
2018-09-16T15:08:16.724Z,1.57
2018-09-16T15:10:45.280Z,1.07
2018-09-16T15:13:13.552Z,1.47
2018-09-16T15:15:41.596Z,1.50
2018-09-16T15:18:09.668Z,1.53
2018-09-16T15:20:37.735Z,1.53
2018-09-16T15:23:05.819Z,1.30
2018-09-16T15:25:34.083Z,1.60
2018-09-16T15:28:02.176Z,1.20
2018-09-16T15:30:30.253Z,1.57
2018-09-16T15:32:58.359Z,1.20
2018-09-16T15:35:26.461Z,1.60
2018-09-16T15:37:54.547Z,1.50
2018-09-16T15:40:22.650Z,1.37
2018-09-16T15:42:50.744Z,1.63
2018-09-16T15:45:18.946Z,1.13
2018-09-16T15:47:47.050Z,1.87
2018-09-16T15:50:15.136Z,1.33
2018-09-16T15:52:43.256Z,1.73
2018-09-16T15:55:11.428Z,1.37
2018-09-16T15:57:39.428Z,1.40
2018-09-16T16:00:07.520Z,1.60
2018-09-16T16:02:35.787Z,1.33
2018-09-16T16:05:03.884Z,1.30
2018-09-16T16:07:32.178Z,1.50
2018-09-16T16:10:00.391Z,1.50
2018-09-16T16:12:28.645Z,1.07
2018-09-16T16:14:58.461Z,1.30
2018-09-16T16:17:26.628Z,1.50
2018-09-16T16:19:54.887Z,1.40
2018-09-16T16:22:23.098Z,1.43
2018-09-16T16:24:51.308Z,1.57
2018-09-16T16:27:19.503Z,2.17
2018-09-16T16:29:47.716Z,2.20
2018-09-16T16:32:15.907Z,1.70
2018-09-16T16:34:44.148Z,1.60
2018-09-16T16:37:12.372Z,1.60
2018-09-16T16:39:40.613Z,1.60
2018-09-16T16:42:08.843Z,1.80
2018-09-16T16:44:37.056Z,2.07
2018-09-16T16:47:05.618Z,1.40
2018-09-16T16:49:33.905Z,2.30
2018-09-16T16:52:01.996Z,1.80
2018-09-16T16:54:31.175Z,1.60
2018-09-16T16:57:01.219Z,2.30
2018-09-16T16:59:30.449Z,1.80
2018-09-16T17:01:59.250Z,1.80
2018-09-16T17:04:27.740Z,1.60
2018-09-16T17:06:57.137Z,1.67
2018-09-16T17:09:26.881Z,1.87
2018-09-16T17:11:55.528Z,2.00
2018-09-16T17:14:23.887Z,2.10
2018-09-16T17:16:52.188Z,2.00
2018-09-16T17:19:20.432Z,2.40
2018-09-16T17:21:53.514Z,2.37
2018-09-16T17:24:23.241Z,2.13
2018-09-16T17:26:55.491Z,2.33
2018-09-16T17:29:26.944Z,2.30
2018-09-16T17:31:56.520Z,2.60
2018-09-16T17:34:34.861Z,2.10
2018-09-16T17:37:04.920Z,2.70
2018-09-16T17:39:34.533Z,1.87
2018-09-16T17:42:03.324Z,1.80
2018-09-16T17:44:31.594Z,1.90
2018-09-16T17:46:59.817Z,1.80
2018-09-16T17:49:27.994Z,2.20
2018-09-16T17:51:57.025Z,2.13
2018-09-16T17:54:25.243Z,2.47
2018-09-16T17:56:54.127Z,2.00
2018-09-16T17:59:22.370Z,2.40
2018-09-16T18:01:50.689Z,2.00
2018-09-16T18:04:19.027Z,2.57
2018-09-16T18:06:47.315Z,2.07
2018-09-16T18:09:16.460Z,2.00
2018-09-16T18:11:45.399Z,2.27
2018-09-16T18:14:27.918Z,2.10
2018-09-16T18:17:52.579Z,2.40
2018-09-16T18:20:20.837Z,2.40
2018-09-16T18:22:49.190Z,2.40
2018-09-16T18:25:17.484Z,2.03
2018-09-16T18:27:45.726Z,2.30
2018-09-16T18:30:13.973Z,2.30
2018-09-16T18:32:42.265Z,2.20
2018-09-16T18:35:10.452Z,2.37
2018-09-16T18:37:38.712Z,2.20
2018-09-16T18:40:06.996Z,2.83
2018-09-16T18:42:35.317Z,2.30
2018-09-16T18:45:03.601Z,2.17
2018-09-16T18:47:31.852Z,2.50
2018-09-16T18:50:11.178Z,2.07
2018-09-16T18:52:39.407Z,2.77
2018-09-16T18:55:07.615Z,2.00
2018-09-16T18:57:36.951Z,2.27
2018-09-16T19:00:06.239Z,2.67
2018-09-16T19:02:34.535Z,2.23
2018-09-16T19:05:03.265Z,2.40
2018-09-16T19:07:31.546Z,3.20
2018-09-16T19:09:59.907Z,2.57
2018-09-16T19:12:29.330Z,2.40
2018-09-16T19:14:58.933Z,2.57
2018-09-16T19:17:27.115Z,2.50
2018-09-16T19:19:56.838Z,2.60
2018-09-16T19:22:25.164Z,2.97
2018-09-16T19:24:56.093Z,2.70
2018-09-16T19:27:24.957Z,3.03
2018-09-16T19:29:53.237Z,2.50
2018-09-16T19:32:21.480Z,3.23
2018-09-16T19:34:50.244Z,3.20
2018-09-16T19:37:18.579Z,2.57
2018-09-16T19:39:53.518Z,2.87
2018-09-16T19:42:21.798Z,3.00
2018-09-16T19:44:50.100Z,2.93
2018-09-16T19:47:18.386Z,2.67
2018-09-16T19:49:46.600Z,3.33
2018-09-16T19:52:14.963Z,3.07
2018-09-16T19:54:43.170Z,3.20
2018-09-16T19:57:11.508Z,2.87
2018-09-16T19:59:40.216Z,3.00
2018-09-16T20:02:09.411Z,2.67
2018-09-16T20:04:38.232Z,2.40
2018-09-16T20:07:06.477Z,3.27
2018-09-16T20:09:35.676Z,2.60
2018-09-16T20:12:03.950Z,2.70
2018-09-16T20:14:33.080Z,3.90
2018-09-16T20:17:01.257Z,3.10
2018-09-16T20:19:29.499Z,2.73
2018-09-16T20:21:57.739Z,2.50
2018-09-16T20:24:25.993Z,2.67
2018-09-16T20:26:54.271Z,2.43
2018-09-16T20:29:26.411Z,2.70
2018-09-16T20:31:54.601Z,2.33
2018-09-16T20:34:22.958Z,2.70
2018-09-16T20:36:51.544Z,2.63
2018-09-16T20:39:19.977Z,2.90
2018-09-16T20:41:48.403Z,2.50
2018-09-16T20:44:16.822Z,2.70
2018-09-16T20:46:45.172Z,3.10
2018-09-16T20:49:13.767Z,2.53
2018-09-16T20:51:42.111Z,3.00
2018-09-16T20:54:10.339Z,3.00
2018-09-16T20:56:38.787Z,2.60
2018-09-16T20:59:07.202Z,2.87
2018-09-16T21:01:35.770Z,2.57
2018-09-16T21:04:04.827Z,2.37
2018-09-16T21:06:33.072Z,3.63
2018-09-16T21:09:01.307Z,2.20
2018-09-16T21:11:29.507Z,2.77
2018-09-16T21:13:57.819Z,2.90
2018-09-16T21:16:26.465Z,3.67
2018-09-16T21:19:04.092Z,2.80
2018-09-16T21:21:32.628Z,2.30
2018-09-16T21:24:01.236Z,2.57
2018-09-16T21:26:29.553Z,2.87
2018-09-16T21:28:58.219Z,2.90
2018-09-16T21:31:26.512Z,3.70
2018-09-16T21:33:54.784Z,3.40
2018-09-16T21:36:24.235Z,2.83
2018-09-16T21:38:52.922Z,2.70
2018-09-16T21:41:21.346Z,2.67
2018-09-16T21:43:49.694Z,2.97
2018-09-16T21:46:18.808Z,2.70
2018-09-16T21:48:47.652Z,3.00
2018-09-16T21:51:15.945Z,2.90
2018-09-16T21:53:45.566Z,4.80
2018-09-16T21:56:13.880Z,3.10
2018-09-16T21:58:41.947Z,3.10
2018-09-16T22:01:10.044Z,3.70
2018-09-16T22:03:50.314Z,3.60
2018-09-16T22:06:18.707Z,2.93
2018-09-16T22:08:47.563Z,3.20
2018-09-16T22:11:16.099Z,3.10
2018-09-16T22:13:44.459Z,3.10
2018-09-16T22:16:12.884Z,3.03
2018-09-16T22:18:41.242Z,3.03
2018-09-16T22:21:09.472Z,3.47
2018-09-16T22:23:38.544Z,3.10
2018-09-16T22:26:06.738Z,2.77
2018-09-16T22:28:36.027Z,3.43
2018-09-16T22:31:04.409Z,3.57
2018-09-16T22:33:32.767Z,3.37
2018-09-16T22:36:00.983Z,2.80
2018-09-16T22:38:29.485Z,3.30
2018-09-16T22:41:05.606Z,3.03
2018-09-16T22:43:44.863Z,3.20
2018-09-16T22:46:13.081Z,3.30
2018-09-16T22:48:41.328Z,3.60
2018-09-16T22:51:09.569Z,3.63
2018-09-16T22:53:38.501Z,3.90
2018-09-16T22:56:10.046Z,3.30
2018-09-16T22:58:38.193Z,3.00
2018-09-16T23:01:06.793Z,3.13
2018-09-16T23:03:35.382Z,3.60
2018-09-16T23:06:03.649Z,3.57
2018-09-16T23:08:32.076Z,3.47
2018-09-16T23:11:01.098Z,3.70
2018-09-16T23:13:29.491Z,3.80
2018-09-16T23:15:57.816Z,3.47
2018-09-16T23:18:26.085Z,3.27
2018-09-16T23:20:54.881Z,3.57
2018-09-16T23:23:23.123Z,3.20
2018-09-16T23:25:51.541Z,3.77
2018-09-16T23:28:19.654Z,3.20
2018-09-16T23:30:47.742Z,3.90
2018-09-16T23:33:15.972Z,4.27
2018-09-16T23:35:44.091Z,3.50
2018-09-16T23:38:18.806Z,3.60
2018-09-16T23:40:46.902Z,3.30
2018-09-16T23:43:14.979Z,3.97
2018-09-16T23:45:43.122Z,4.03
2018-09-16T23:48:11.180Z,4.03
2018-09-16T23:50:39.271Z,3.40
2018-09-16T23:53:07.396Z,3.43
2018-09-16T23:55:35.468Z,3.77
2018-09-16T23:58:03.563Z,3.50
